This is the latest recevied weather packets stored in our database for station/object HK2LS-SM. If no packets are shown the sender has not sent any weather packets the latest 10 day(s).
| Time | Temp. | Humidity | Pressure | Rain* | Wind** | Luminosity | Snow |
|---|---|---|---|---|---|---|---|
| 1777983250 | 29.44° C | 73% | 1007.1 hPa | 0 mm | - | - | - |
| 1777980809 | 28.33° C | 77% | 1007.1 hPa | 0 mm | - | - | - |
| 1777980507 | 27.78° C | 77% | 1007.1 hPa | 0 mm | - | - | - |
| 1777980206 | 27.78° C | 77% | 1007.1 hPa | 0 mm | - | - | - |
| 1777974647 | 27.78° C | 78% | 1007.1 hPa | 0 mm | - | - | - |
| 1777972445 | 28.33° C | 78% | 1007.1 hPa | 0 mm | - | - | - |
| 1777971844 | 28.33° C | 77% | 1007.1 hPa | 0 mm | - | - | - |
| 1777969974 | 28.33° C | 77% | 1007.1 hPa | 0 mm | - | - | - |
| 1777969673 | 28.33° C | 77% | 1007.1 hPa | 0 mm | - | - | - |
| 1777969070 | 28.33° C | 77% | 1007.1 hPa | 0 mm | - | - | - |
| 1777966933 | 28.89° C | 75% | 1007.1 hPa | 0 mm | - | - | - |
| 1777960485 | 28.89° C | 78% | 1007.1 hPa | 0 mm | - | - | - |
| 1777960184 | 28.89° C | 78% | 1007.1 hPa | 0 mm | - | - | - |
| 1777958014 | 28.89° C | 77% | 1007.1 hPa | 0 mm | - | - | - |
| 1777957712 | 28.89° C | 78% | 1007.1 hPa | 0 mm | - | - | - |
| 1777956445 | 29.44° C | 76% | 1007.1 hPa | 0 mm | - | - | - |
| 1777955510 | 29.44° C | 76% | 1007.1 hPa | 0 mm | - | - | - |
| 1777954907 | 29.44° C | 76% | 1007.1 hPa | 0 mm | - | - | - |
| 1777954606 | 29.44° C | 76% | 1007.1 hPa | 0 mm | - | - | - |
| 1777950897 | 29.44° C | 75% | 1007.1 hPa | 0 mm | - | - | - |
| 1777950294 | 29.44° C | 75% | 1007.1 hPa | 0 mm | - | - | - |
| 1777949692 | 29.44° C | 75% | 1007.1 hPa | 0 mm | - | - | - |
| 1777948487 | 29.44° C | 75% | 1007.1 hPa | 0 mm | - | - | - |
| 1777946917 | 29.44° C | 75% | 1007.1 hPa | 0 mm | - | - | - |
| 1777939289 | 30.56° C | 73% | 1007.1 hPa | 0 mm | - | - | - |
* Rain latest hour (hover to see other rain measurements)
** Current wind speed in m/s (hover to see current wind gust speed)